Aérodrome :
LOGIN :

S'inscrire | Disclaimer

   EN    FR    IT 

 










Légende :    VFR   VFR Marginal   IFR   IFR Intensif   IFR Très Intensif
Visi : 
Plafond : 
>= 8 km
>= 3000ft
5 à 8 km
1000 à 3000 ft
1500m à 5 km
500 à 1000 ft
800 à 1500m
200 à 500 ft
< 800m
< 200 ft
Symboles :   Orages  Brouillard  Fortes neiges  Fortes précipitations  Vent > 20 kt
SIGMETs :   Divers  Orages  Givrage  Turbulence  Onde Orograph.  Cendres Volcan.







- Altitude de l'aérodrome : 587 ft
- Code IATA : XCR
- Voir les cartes d'approche


LFOK - Chalons Vatry

DERNIER METAR :
  • 171000Z AUTO VRB03KT 9000 NSC 18/11 Q1019 NOSIG

METARs EXPIRÉS :
  • 170930Z AUTO VRB02KT 8000 NSC 16/11 Q1019 NOSIG
  • 170900Z AUTO VRB03KT 8000 NSC 15/11 Q1019 NOSIG
  • 170830Z AUTO 04003KT 7000 NSC 13/11 Q1019 NOSIG
  • 170800Z AUTO 05004KT 7000 NSC 12/10 Q1019 NOSIG
  • 170730Z AUTO 07004KT 6000 NSC 11/10 Q1019 NOSIG

TAF TAF LFOK
Valide du 17 à 06h jusqu'au 18 à 06h UTC


170500Z 1706/1806 VRB02KT 5000 BR NSC
BECMG 1706/1708 CAVOK
BECMG 1715/1718 36010KT
PROB30
TEMPO 1802/1806 BKN003
Pas de NOTAMs connus pour ce terrain.



MET'MAP, la Météo Aéronautique d'un coup d'oeil ! - Copyright ORBIFLY Décembre 2007 - Disclaimer

ORBIFLY MET'MAP TEAM :

Programmation & Développement : Alexandra Zaïnal
Conception & Développement : Baudouin d'Aumeries
Co-Programmation & Développement : Marc-Olivier Méhu
Soutien technique & logistique : Manuel Goepfert

Contact : metmap@orbifly.com




SOURCES & CREDITS :

   NOAA